New Scandia, Minnesota
Current Conditions -  °F | °C
As of 4:15 PM on Monday 20 Oct 2014 (Local Time) from KOEO Reporting Station
Clear Clear  
Wind Chill: 59°   Ceiling: Unl
Heat Index: 59°   Visibility: 10mi
Dew Point: 41°   Wind: 9mph
Humidity: 52%   Direction: 340°NNW
Pressure: 30.01"   Gusts: NA
Location:  45.2742°N, 92.8215°W
Report Text: KOEO 202115Z AUTO 34008KT 10SM CLR 15/05 A3001 RMK AO2 T01510052
Loading
Personal Weather Stations






























Interactive Weather Map
Tropical Storm Tracking
New forecast layout! Learn more

10-Day Weather Forecast

Advertisements
Track Severe Weather on mobile